createdAt,value
2019-05-05T00:02:44.733Z,80.62
2019-05-05T00:05:16.129Z,80.74
2019-05-05T00:07:44.819Z,80.89
2019-05-05T00:10:15.093Z,80.75
2019-05-05T00:12:56.181Z,80.91
2019-05-05T00:15:44.907Z,80.81
2019-05-05T00:18:11.741Z,80.29
2019-05-05T00:20:38.349Z,80.35
2019-05-05T00:23:05.379Z,80.42
2019-05-05T00:25:34.170Z,80.76
2019-05-05T00:28:00.834Z,80.59
2019-05-05T00:30:27.593Z,80.58
2019-05-05T00:32:54.846Z,80.27
2019-05-05T00:35:22.050Z,80.18
2019-05-05T00:37:48.662Z,80.64
2019-05-05T00:40:15.424Z,79.53
2019-05-05T00:42:42.064Z,79.23
2019-05-05T00:45:09.149Z,79.00
2019-05-05T00:47:40.421Z,78.86
2019-05-05T00:50:08.370Z,78.58
2019-05-05T00:52:35.217Z,79.28
2019-05-05T00:55:04.564Z,79.26
2019-05-05T00:57:31.581Z,79.64
2019-05-05T00:59:58.180Z,79.84
2019-05-05T01:02:27.042Z,80.42
2019-05-05T01:04:57.971Z,80.87
2019-05-05T01:07:24.797Z,80.53
2019-05-05T01:09:51.768Z,80.14
2019-05-05T01:12:19.291Z,79.92
2019-05-05T01:14:45.859Z,78.98
2019-05-05T01:17:14.567Z,79.09
2019-05-05T01:19:41.057Z,79.01
2019-05-05T01:22:07.652Z,79.08
2019-05-05T01:24:36.413Z,79.04
2019-05-05T01:27:04.278Z,79.05
2019-05-05T01:29:31.039Z,79.42
2019-05-05T01:31:59.537Z,79.10
2019-05-05T01:34:38.127Z,78.44
2019-05-05T01:37:06.562Z,78.99
2019-05-05T01:39:36.044Z,79.16
2019-05-05T01:42:04.998Z,79.11
2019-05-05T01:44:31.669Z,80.07
2019-05-05T01:46:58.242Z,80.11
2019-05-05T01:49:25.371Z,80.23
2019-05-05T01:51:52.146Z,79.63
2019-05-05T01:54:18.748Z,80.20
2019-05-05T01:56:45.768Z,80.43
2019-05-05T01:59:14.349Z,80.47
2019-05-05T02:01:41.123Z,80.89
2019-05-05T02:04:08.223Z,81.69
2019-05-05T02:06:35.164Z,81.95
2019-05-05T02:09:01.941Z,82.45
2019-05-05T02:11:30.525Z,82.42
2019-05-05T02:13:57.179Z,82.27
2019-05-05T02:16:25.340Z,82.17
2019-05-05T02:18:54.291Z,82.35
2019-05-05T02:21:20.656Z,81.96
2019-05-05T02:23:47.293Z,81.55
2019-05-05T02:26:15.239Z,80.69
2019-05-05T02:28:46.538Z,80.17
2019-05-05T02:31:25.530Z,79.85
2019-05-05T02:33:52.433Z,80.28
2019-05-05T02:36:19.047Z,79.93
2019-05-05T02:38:46.436Z,79.62
2019-05-05T02:41:15.564Z,80.06
2019-05-05T02:43:44.991Z,79.99
2019-05-05T02:46:17.735Z,79.02
2019-05-05T02:48:47.517Z,78.56
2019-05-05T02:51:15.463Z,78.36
2019-05-05T02:53:48.490Z,78.17
2019-05-05T02:56:18.108Z,78.33
2019-05-05T02:58:47.908Z,79.33
2019-05-05T03:01:17.200Z,79.24
2019-05-05T03:03:44.309Z,79.21
2019-05-05T03:06:10.945Z,78.90
2019-05-05T03:08:40.047Z,76.97
2019-05-05T03:11:07.858Z,78.85
2019-05-05T03:13:35.859Z,79.50
2019-05-05T03:16:24.139Z,78.39
2019-05-05T03:18:50.892Z,78.75
2019-05-05T03:21:18.784Z,77.69
2019-05-05T03:23:46.411Z,78.14
2019-05-05T03:26:14.197Z,78.88
2019-05-05T03:28:43.862Z,78.88
2019-05-05T03:31:15.591Z,78.80
2019-05-05T03:33:41.540Z,78.88
2019-05-05T03:36:08.829Z,79.24
2019-05-05T03:38:35.554Z,76.38
2019-05-05T03:41:04.160Z,76.90
2019-05-05T03:43:34.207Z,76.69
2019-05-05T03:46:04.430Z,77.04
2019-05-05T03:48:31.409Z,78.02
2019-05-05T03:50:58.437Z,78.58
2019-05-05T03:53:25.620Z,78.95
2019-05-05T03:55:54.476Z,78.24
2019-05-05T03:58:23.911Z,77.25
2019-05-05T04:01:10.948Z,78.20
2019-05-05T04:03:37.563Z,78.17
2019-05-05T04:06:06.519Z,78.89
2019-05-05T04:08:33.916Z,78.52
2019-05-05T04:11:03.825Z,78.00
2019-05-05T04:13:30.695Z,78.25
2019-05-05T04:16:13.546Z,78.59
2019-05-05T04:18:47.899Z,78.25
2019-05-05T04:21:14.643Z,78.91
2019-05-05T04:23:41.383Z,78.16
2019-05-05T04:26:08.060Z,78.14
2019-05-05T04:28:34.762Z,77.87
2019-05-05T04:31:01.371Z,78.08
2019-05-05T04:33:28.030Z,78.83
2019-05-05T04:35:54.688Z,79.02
2019-05-05T04:38:21.566Z,79.15
2019-05-05T04:40:48.141Z,78.72
2019-05-05T04:43:14.783Z,78.36
2019-05-05T04:45:43.478Z,78.80
2019-05-05T04:48:13.654Z,79.28
2019-05-05T04:50:44.942Z,79.53
2019-05-05T04:53:13.594Z,78.87
2019-05-05T04:55:40.427Z,78.70
2019-05-05T04:58:07.084Z,79.01
2019-05-05T05:00:34.269Z,79.32
2019-05-05T05:03:08.820Z,78.82
2019-05-05T05:05:53.602Z,78.20
2019-05-05T05:08:20.579Z,78.33
2019-05-05T05:10:47.667Z,78.44
2019-05-05T05:13:14.426Z,78.52
2019-05-05T05:15:41.105Z,79.33
2019-05-05T05:18:09.594Z,78.99
2019-05-05T05:20:36.221Z,79.40
2019-05-05T05:23:03.615Z,79.73
2019-05-05T05:25:30.497Z,79.27
2019-05-05T05:27:57.100Z,79.02
2019-05-05T05:30:24.852Z,79.42
2019-05-05T05:32:53.739Z,78.48
2019-05-05T05:35:20.074Z,79.15
2019-05-05T05:37:46.747Z,79.22
2019-05-05T05:40:17.931Z,79.75
2019-05-05T05:42:44.553Z,78.61
2019-05-05T05:45:18.607Z,77.66
2019-05-05T05:48:04.151Z,76.96
2019-05-05T05:50:36.036Z,73.81
2019-05-05T05:53:04.565Z,74.39
2019-05-05T05:55:31.225Z,74.78
2019-05-05T05:57:57.864Z,75.55
2019-05-05T06:00:24.806Z,76.16
2019-05-05T06:02:51.445Z,75.30
2019-05-05T06:05:18.104Z,75.97
2019-05-05T06:07:44.720Z,76.17
2019-05-05T06:10:22.314Z,76.94
2019-05-05T06:12:41.036Z,76.48
2019-05-05T06:15:07.853Z,75.55
2019-05-05T06:17:34.554Z,76.05
2019-05-05T06:20:01.194Z,75.97
2019-05-05T06:22:31.298Z,76.86
2019-05-05T06:24:56.261Z,77.13
2019-05-05T06:27:23.624Z,75.50
2019-05-05T06:29:50.478Z,75.52
2019-05-05T06:32:17.091Z,76.33
2019-05-05T06:34:44.242Z,76.34
2019-05-05T06:37:11.127Z,76.62
2019-05-05T06:39:38.671Z,75.93
2019-05-05T06:42:16.030Z,75.05
2019-05-05T06:44:44.502Z,72.88
2019-05-05T06:47:13.543Z,74.46
2019-05-05T06:49:40.560Z,73.95
2019-05-05T06:52:07.157Z,74.41
2019-05-05T06:54:34.865Z,75.43
2019-05-05T06:57:05.292Z,74.33
2019-05-05T06:59:34.837Z,74.90
2019-05-05T07:02:08.874Z,76.29
2019-05-05T07:04:35.477Z,74.01
2019-05-05T07:07:05.093Z,72.85
2019-05-05T07:09:33.624Z,73.73
2019-05-05T07:12:07.777Z,74.02
2019-05-05T07:14:34.623Z,75.09
2019-05-05T07:17:01.265Z,74.54
2019-05-05T07:19:29.025Z,73.68
2019-05-05T07:21:55.720Z,73.23
2019-05-05T07:24:23.879Z,72.33
2019-05-05T07:26:50.911Z,73.56
2019-05-05T07:29:18.526Z,73.25
2019-05-05T07:31:45.750Z,74.35
2019-05-05T07:34:14.435Z,73.44
2019-05-05T07:36:44.503Z,73.64
2019-05-05T07:39:14.387Z,72.93
2019-05-05T07:41:41.276Z,71.80
2019-05-05T07:44:07.922Z,73.32
2019-05-05T07:46:34.816Z,71.38
2019-05-05T07:49:03.726Z,70.74
2019-05-05T07:51:30.125Z,72.68
2019-05-05T07:53:56.728Z,72.62
2019-05-05T07:56:23.868Z,71.75
2019-05-05T07:58:50.636Z,71.71
2019-05-05T08:01:17.378Z,70.47
2019-05-05T08:03:47.342Z,68.58
2019-05-05T08:06:17.097Z,72.28
2019-05-05T08:08:44.306Z,72.87
2019-05-05T08:11:14.757Z,71.79
2019-05-05T08:13:44.511Z,72.10
2019-05-05T08:16:14.137Z,70.66
2019-05-05T08:18:51.727Z,70.17
2019-05-05T08:21:18.379Z,72.39
2019-05-05T08:23:54.063Z,72.90
2019-05-05T08:26:29.098Z,72.58
2019-05-05T08:28:57.602Z,72.49
2019-05-05T08:31:29.004Z,71.95
2019-05-05T08:33:56.131Z,73.13
2019-05-05T08:36:24.896Z,73.94
2019-05-05T08:38:51.516Z,74.58
2019-05-05T08:41:18.149Z,72.65
2019-05-05T08:43:44.820Z,73.28
2019-05-05T08:46:14.170Z,72.86
2019-05-05T08:48:40.349Z,73.27
2019-05-05T08:51:06.994Z,72.96
2019-05-05T08:53:44.972Z,73.24
2019-05-05T08:56:05.390Z,72.62
2019-05-05T08:58:34.265Z,73.82
2019-05-05T09:01:00.553Z,74.70
2019-05-05T09:03:27.698Z,73.39
2019-05-05T09:05:54.470Z,73.28
2019-05-05T09:08:24.123Z,73.07
2019-05-05T09:10:53.104Z,72.60
2019-05-05T09:13:19.515Z,69.86
2019-05-05T09:15:46.429Z,71.82
2019-05-05T09:18:15.904Z,72.48
2019-05-05T09:20:44.550Z,72.47
2019-05-05T09:23:11.470Z,73.28
2019-05-05T09:25:53.870Z,72.72
2019-05-05T09:28:23.846Z,73.67
2019-05-05T09:30:51.114Z,73.63
2019-05-05T09:33:18.425Z,73.05
2019-05-05T09:35:45.334Z,72.56
2019-05-05T09:38:14.915Z,71.95
2019-05-05T09:40:44.036Z,72.14
2019-05-05T09:43:12.044Z,72.23
2019-05-05T09:45:38.680Z,72.14
2019-05-05T09:48:07.206Z,72.81
2019-05-05T09:50:36.588Z,71.15
2019-05-05T09:53:09.325Z,72.58
2019-05-05T09:55:37.126Z,72.78
2019-05-05T09:58:04.527Z,71.77
2019-05-05T10:00:33.682Z,71.40
2019-05-05T10:03:00.433Z,70.78
2019-05-05T10:05:27.027Z,71.41
2019-05-05T10:07:54.730Z,71.93
2019-05-05T10:10:21.414Z,70.95
2019-05-05T10:12:52.316Z,72.40
2019-05-05T10:15:18.834Z,71.64
2019-05-05T10:17:45.443Z,71.65
2019-05-05T10:20:14.396Z,70.91
2019-05-05T10:22:43.716Z,69.12
2019-05-05T10:25:30.072Z,68.43
2019-05-05T10:27:57.652Z,70.15
2019-05-05T10:30:24.450Z,71.45
2019-05-05T10:32:51.644Z,70.91
2019-05-05T10:35:19.298Z,70.50
2019-05-05T10:37:45.882Z,70.98
2019-05-05T10:40:15.437Z,70.42
2019-05-05T10:42:49.030Z,70.14
2019-05-05T10:45:16.498Z,71.27
2019-05-05T10:47:44.067Z,72.10
2019-05-05T10:50:11.155Z,71.27
2019-05-05T10:52:37.753Z,68.85
2019-05-05T10:55:05.459Z,70.01
2019-05-05T10:57:34.135Z,69.41
2019-05-05T11:00:10.046Z,68.63
2019-05-05T11:02:30.145Z,68.75
2019-05-05T11:04:56.769Z,70.64
2019-05-05T11:07:23.622Z,68.15
2019-05-05T11:09:50.591Z,68.08
2019-05-05T11:12:18.227Z,68.86
2019-05-05T11:14:44.868Z,67.08
2019-05-05T11:17:11.481Z,70.12
2019-05-05T11:19:38.241Z,69.65
2019-05-05T11:22:05.949Z,68.43
2019-05-05T11:24:34.570Z,67.86
2019-05-05T11:27:01.409Z,67.72
2019-05-05T11:29:29.788Z,68.81
2019-05-05T11:31:58.205Z,70.36
2019-05-05T11:34:26.441Z,68.90
2019-05-05T11:37:00.589Z,67.93
2019-05-05T11:39:27.537Z,67.77
2019-05-05T11:41:54.780Z,68.12
2019-05-05T11:44:24.134Z,66.54
2019-05-05T11:46:50.664Z,66.85
2019-05-05T11:49:17.275Z,66.42
2019-05-05T11:51:43.891Z,67.55
2019-05-05T11:54:10.564Z,67.79
2019-05-05T11:56:39.108Z,68.88
2019-05-05T11:59:05.823Z,70.19
2019-05-05T12:01:32.457Z,67.73
2019-05-05T12:04:01.258Z,67.94
2019-05-05T12:06:27.823Z,65.67
2019-05-05T12:08:54.476Z,67.66
2019-05-05T12:11:21.534Z,66.99
2019-05-05T12:13:49.439Z,70.29
2019-05-05T12:16:17.918Z,67.31
2019-05-05T12:18:44.999Z,64.81
2019-05-05T12:21:13.859Z,64.85
2019-05-05T12:23:41.605Z,65.71
2019-05-05T12:26:21.790Z,65.69
2019-05-05T12:28:50.249Z,66.46
2019-05-05T12:31:24.929Z,66.81
2019-05-05T12:33:54.848Z,65.98
2019-05-05T12:36:23.628Z,66.33
2019-05-05T12:38:51.660Z,66.79
2019-05-05T12:41:20.862Z,65.34
2019-05-05T12:43:46.786Z,63.97
2019-05-05T12:46:15.262Z,64.85
2019-05-05T12:48:45.364Z,64.62
2019-05-05T12:51:14.589Z,64.41
2019-05-05T12:53:41.031Z,66.07
2019-05-05T12:56:07.731Z,65.01
2019-05-05T12:58:34.718Z,64.84
2019-05-05T13:01:07.856Z,66.15
2019-05-05T13:03:35.113Z,67.07
2019-05-05T13:06:04.005Z,66.41
2019-05-05T13:08:30.541Z,65.72
2019-05-05T13:10:57.317Z,67.32
2019-05-05T13:13:24.115Z,66.41
2019-05-05T13:15:53.733Z,66.32
2019-05-05T13:18:20.544Z,64.98
2019-05-05T13:20:53.618Z,65.50
2019-05-05T13:23:33.959Z,65.09
2019-05-05T13:26:04.240Z,66.59
2019-05-05T13:28:31.434Z,65.99
2019-05-05T13:30:58.430Z,63.55
2019-05-05T13:33:25.030Z,65.41
2019-05-05T13:35:53.801Z,64.77
2019-05-05T13:38:23.990Z,65.96
2019-05-05T13:40:50.822Z,65.12
2019-05-05T13:43:17.725Z,64.76
2019-05-05T13:45:46.158Z,63.70
2019-05-05T13:48:14.054Z,65.24
2019-05-05T13:50:43.188Z,64.33
2019-05-05T13:53:10.011Z,63.93
2019-05-05T13:55:41.737Z,63.88
2019-05-05T13:58:09.186Z,63.19
2019-05-05T14:00:36.104Z,63.88
2019-05-05T14:03:03.871Z,62.47
2019-05-05T14:05:34.359Z,62.00
2019-05-05T14:08:04.090Z,64.97
2019-05-05T14:10:31.427Z,65.77
2019-05-05T14:12:57.998Z,63.06
2019-05-05T14:15:24.999Z,63.21
2019-05-05T14:17:51.722Z,61.56
2019-05-05T14:20:18.427Z,62.17
2019-05-05T14:22:46.316Z,64.90
2019-05-05T14:25:28.196Z,63.49
2019-05-05T14:27:56.074Z,63.79
2019-05-05T14:30:44.371Z,63.43
2019-05-05T14:33:13.215Z,63.07
2019-05-05T14:35:50.662Z,65.31
2019-05-05T14:38:37.663Z,68.94
2019-05-05T14:41:04.371Z,66.79
2019-05-05T14:43:30.953Z,66.86
2019-05-05T14:45:57.576Z,65.31
2019-05-05T14:48:25.276Z,65.27
2019-05-05T14:50:51.897Z,64.02
2019-05-05T14:53:20.156Z,64.32
2019-05-05T14:55:47.428Z,64.56
2019-05-05T14:58:14.977Z,62.32
2019-05-05T15:00:41.591Z,63.35
2019-05-05T15:03:08.829Z,62.88
2019-05-05T15:05:44.403Z,63.35
2019-05-05T15:08:13.700Z,63.26
2019-05-05T15:10:45.312Z,66.68
2019-05-05T15:13:11.924Z,67.48
2019-05-05T15:15:38.549Z,67.14
2019-05-05T15:18:05.253Z,65.81
2019-05-05T15:20:34.375Z,66.50
2019-05-05T15:23:01.927Z,67.37
2019-05-05T15:25:28.593Z,68.45
2019-05-05T15:27:55.162Z,68.60
2019-05-05T15:36:56.841Z,73.74
2019-05-05T15:39:24.599Z,68.65
2019-05-05T15:41:51.461Z,68.02
2019-05-05T15:44:20.592Z,69.30
2019-05-05T15:46:48.597Z,68.84
2019-05-05T15:49:15.439Z,68.62
2019-05-05T15:51:44.187Z,70.62
2019-05-05T15:54:10.665Z,70.21
2019-05-05T15:56:38.474Z,69.96
2019-05-05T15:59:05.270Z,69.74
2019-05-05T16:01:34.440Z,70.66
2019-05-05T16:04:00.715Z,70.78
2019-05-05T16:06:29.024Z,70.45
2019-05-05T16:08:56.651Z,71.22
2019-05-05T16:11:23.528Z,70.36
2019-05-05T16:13:50.061Z,70.76
2019-05-05T16:16:23.601Z,71.01
2019-05-05T16:19:08.719Z,70.31
2019-05-05T16:21:37.710Z,70.47
2019-05-05T16:24:16.172Z,71.12
2019-05-05T16:26:43.470Z,69.94
2019-05-05T16:29:10.075Z,70.98
2019-05-05T16:31:37.109Z,70.90
2019-05-05T16:34:04.351Z,71.75
2019-05-05T16:36:33.556Z,72.71
2019-05-05T16:39:00.404Z,71.10
2019-05-05T16:41:29.161Z,71.58
2019-05-05T16:43:56.672Z,71.26
2019-05-05T16:46:23.894Z,71.62
2019-05-05T16:48:50.718Z,71.63
2019-05-05T16:51:21.133Z,72.95
2019-05-05T16:53:47.900Z,69.65
2019-05-05T16:56:15.918Z,70.74
2019-05-05T16:58:42.572Z,72.44
2019-05-05T17:01:11.805Z,73.11
2019-05-05T17:03:40.797Z,73.59
2019-05-05T17:06:08.600Z,73.65
2019-05-05T17:08:35.188Z,73.98
2019-05-05T17:11:02.250Z,74.56
2019-05-05T17:13:30.656Z,73.42
2019-05-05T17:16:15.524Z,74.13
2019-05-05T17:18:50.631Z,74.34
2019-05-05T17:21:35.432Z,75.29
2019-05-05T17:24:02.153Z,74.65
2019-05-05T17:26:31.850Z,74.24
2019-05-05T17:28:59.143Z,74.16
2019-05-05T17:31:25.765Z,75.22
2019-05-05T17:33:53.651Z,72.94
2019-05-05T17:36:21.666Z,73.31
2019-05-05T17:38:48.265Z,73.93
2019-05-05T17:41:19.444Z,73.33
2019-05-05T17:43:48.880Z,71.59
2019-05-05T17:46:24.134Z,71.22
2019-05-05T17:48:58.738Z,70.87
2019-05-05T17:51:33.613Z,70.78
2019-05-05T17:54:05.002Z,71.14
2019-05-05T17:56:34.157Z,71.46
2019-05-05T17:59:03.442Z,71.17
2019-05-05T18:01:30.709Z,71.69
2019-05-05T18:03:59.500Z,71.59
2019-05-05T18:06:44.077Z,70.87
2019-05-05T18:09:15.757Z,70.99
2019-05-05T18:11:50.088Z,71.42
2019-05-05T18:14:24.391Z,72.54
2019-05-05T18:16:54.207Z,73.40
2019-05-05T18:19:24.788Z,72.94
2019-05-05T18:21:54.787Z,73.20
2019-05-05T18:24:24.407Z,73.45
2019-05-05T18:26:56.044Z,72.98
2019-05-05T18:29:25.071Z,73.28
2019-05-05T18:31:53.406Z,73.53
2019-05-05T18:34:20.912Z,73.20
2019-05-05T18:36:47.494Z,75.06
2019-05-05T18:39:14.111Z,74.49
2019-05-05T18:41:43.989Z,74.56
2019-05-05T18:44:13.385Z,75.10
2019-05-05T18:46:40.275Z,75.06
2019-05-05T18:49:06.895Z,73.89
2019-05-05T18:51:34.886Z,74.87
2019-05-05T18:54:04.300Z,73.50
2019-05-05T18:56:30.939Z,74.37
2019-05-05T18:58:57.925Z,73.81
2019-05-05T19:01:26.317Z,74.45
2019-05-05T19:04:00.926Z,78.33
2019-05-05T19:06:35.792Z,78.22
2019-05-05T19:09:06.107Z,75.85
2019-05-05T19:11:34.165Z,75.70
2019-05-05T19:14:00.795Z,75.79
2019-05-05T19:16:29.277Z,77.41
2019-05-05T19:18:55.837Z,78.19
2019-05-05T19:21:31.397Z,74.42
2019-05-05T19:23:57.980Z,75.42
2019-05-05T19:26:24.578Z,76.23
2019-05-05T19:28:51.683Z,75.90
2019-05-05T19:31:18.212Z,75.07
2019-05-05T19:33:44.826Z,76.11
2019-05-05T19:36:12.791Z,76.12
2019-05-05T19:38:39.491Z,75.83
2019-05-05T19:41:07.452Z,76.68
2019-05-05T19:43:36.792Z,76.75
2019-05-05T19:46:05.401Z,76.94
2019-05-05T19:48:33.858Z,76.13
2019-05-05T19:51:08.750Z,75.09
2019-05-05T19:53:35.719Z,75.41
2019-05-05T19:56:04.062Z,75.52
2019-05-05T19:58:30.862Z,76.84
2019-05-05T20:00:59.262Z,76.73
2019-05-05T20:03:26.163Z,76.10
2019-05-05T20:05:54.062Z,76.55
2019-05-05T20:08:23.519Z,76.87
2019-05-05T20:10:50.432Z,78.18
2019-05-05T20:13:18.187Z,79.26
2019-05-05T20:15:46.621Z,78.95
2019-05-05T20:18:14.183Z,79.28
2019-05-05T20:20:44.383Z,77.54
2019-05-05T20:23:11.106Z,78.15
2019-05-05T20:25:37.998Z,78.33
2019-05-05T20:28:04.753Z,80.12
2019-05-05T20:30:31.507Z,80.91
2019-05-05T20:33:04.039Z,82.60
2019-05-05T20:35:53.741Z,83.00
2019-05-05T20:38:23.821Z,83.37
2019-05-05T20:41:10.434Z,83.01
2019-05-05T20:43:38.241Z,83.70
2019-05-05T20:46:05.202Z,83.13
2019-05-05T20:48:40.819Z,82.82
2019-05-05T20:51:06.455Z,83.26
2019-05-05T20:53:34.498Z,82.57
2019-05-05T20:56:01.411Z,82.96
2019-05-05T20:58:33.617Z,83.45
2019-05-05T21:01:04.629Z,82.86
2019-05-05T21:03:31.550Z,82.79
2019-05-05T21:05:58.171Z,81.98
2019-05-05T21:08:24.874Z,82.59
2019-05-05T21:10:53.659Z,83.95
2019-05-05T21:13:20.453Z,81.63
2019-05-05T21:15:47.105Z,81.26
2019-05-05T21:18:14.379Z,82.33
2019-05-05T21:20:41.245Z,82.55
2019-05-05T21:23:10.697Z,81.87
2019-05-05T21:26:00.573Z,80.95
2019-05-05T21:28:27.549Z,80.94
2019-05-05T21:30:54.199Z,80.21
2019-05-05T21:33:20.945Z,81.46
2019-05-05T21:35:47.587Z,80.45
2019-05-05T21:38:14.353Z,80.04
2019-05-05T21:40:41.017Z,81.10
2019-05-05T21:43:08.860Z,80.99
2019-05-05T21:45:35.622Z,79.76
2019-05-05T21:48:04.311Z,79.50
2019-05-05T21:50:33.926Z,80.80
2019-05-05T21:53:04.582Z,80.19
2019-05-05T21:55:34.001Z,78.93
2019-05-05T21:58:04.242Z,79.68
2019-05-05T22:00:51.107Z,78.44
2019-05-05T22:03:37.745Z,78.07
2019-05-05T22:06:04.843Z,77.94
2019-05-05T22:08:33.626Z,79.98
2019-05-05T22:11:00.510Z,78.72
2019-05-05T22:13:28.242Z,77.36
2019-05-05T22:15:55.943Z,78.40
2019-05-05T22:18:22.610Z,78.62
2019-05-05T22:21:04.455Z,78.46
2019-05-05T22:23:31.205Z,77.65
2019-05-05T22:25:58.343Z,77.79
2019-05-05T22:28:26.743Z,78.26
2019-05-05T22:30:55.341Z,78.71
2019-05-05T22:33:21.925Z,77.78
2019-05-05T22:35:48.556Z,77.32
2019-05-05T22:38:15.245Z,77.09
2019-05-05T22:40:43.937Z,77.73
2019-05-05T22:43:10.558Z,77.26
2019-05-05T22:45:38.107Z,77.50
2019-05-05T22:48:05.166Z,78.68
2019-05-05T22:50:33.953Z,77.73
2019-05-05T22:53:00.627Z,78.12
2019-05-05T22:55:27.226Z,79.24
2019-05-05T22:57:54.405Z,79.45
2019-05-05T23:00:26.683Z,79.96
2019-05-05T23:03:13.565Z,80.75
2019-05-05T23:05:56.924Z,80.84
2019-05-05T23:08:24.313Z,81.67
2019-05-05T23:10:51.381Z,82.10
2019-05-05T23:13:18.023Z,81.94
2019-05-05T23:15:59.613Z,81.47
2019-05-05T23:18:27.330Z,81.14
2019-05-05T23:20:55.851Z,80.62
2019-05-05T23:23:41.240Z,79.64
2019-05-05T23:26:10.659Z,79.83
2019-05-05T23:28:37.275Z,80.46
2019-05-05T23:31:03.931Z,81.33
2019-05-05T23:33:30.523Z,81.21
2019-05-05T23:35:57.546Z,80.81
2019-05-05T23:38:24.258Z,81.95
2019-05-05T23:40:50.851Z,82.77
2019-05-05T23:43:17.543Z,82.88
2019-05-05T23:45:45.278Z,82.21
2019-05-05T23:48:14.282Z,81.53
2019-05-05T23:50:40.672Z,81.72
2019-05-05T23:53:08.474Z,81.72
2019-05-05T23:55:35.091Z,81.51
2019-05-05T23:58:03.638Z,80.61
